sensor_id;sensor_type;location;lat;lon;timestamp;temperature;humidity
24152;DHT22;12311;50.866;4.332;2023-04-03T05:24:52;2.20;99.90
24152;DHT22;12311;50.866;4.332;2023-04-03T05:27:17;2.20;99.90
24152;DHT22;12311;50.866;4.332;2023-04-03T05:29:43;2.20;99.90
24152;DHT22;12311;50.866;4.332;2023-04-03T05:32:10;2.30;99.90
24152;DHT22;12311;50.866;4.332;2023-04-03T05:34:36;2.30;99.90
24152;DHT22;12311;50.866;4.332;2023-04-03T05:37:02;2.30;99.90
24152;DHT22;12311;50.866;4.332;2023-04-03T05:39:29;2.30;99.90
24152;DHT22;12311;50.866;4.332;2023-04-03T05:41:56;2.30;99.90
24152;DHT22;12311;50.866;4.332;2023-04-03T05:44:22;2.40;99.90
24152;DHT22;12311;50.866;4.332;2023-04-03T05:46:48;2.40;99.90
24152;DHT22;12311;50.866;4.332;2023-04-03T05:49:13;2.40;99.90
24152;DHT22;12311;50.866;4.332;2023-04-03T05:51:39;2.40;99.90
24152;DHT22;12311;50.866;4.332;2023-04-03T05:54:23;2.40;99.90
24152;DHT22;12311;50.866;4.332;2023-04-03T05:56:50;2.40;99.90
24152;DHT22;12311;50.866;4.332;2023-04-03T05:59:16;2.40;99.90
24152;DHT22;12311;50.866;4.332;2023-04-03T06:01:42;2.50;99.90
24152;DHT22;12311;50.866;4.332;2023-04-03T06:04:08;2.50;99.90
24152;DHT22;12311;50.866;4.332;2023-04-03T06:06:52;2.60;99.90
24152;DHT22;12311;50.866;4.332;2023-04-03T06:09:20;2.60;99.90
24152;DHT22;12311;50.866;4.332;2023-04-03T06:11:46;2.60;99.90
24152;DHT22;12311;50.866;4.332;2023-04-03T06:14:12;2.60;99.90
24152;DHT22;12311;50.866;4.332;2023-04-03T06:16:38;2.70;99.90
24152;DHT22;12311;50.866;4.332;2023-04-03T06:19:05;2.70;99.90
24152;DHT22;12311;50.866;4.332;2023-04-03T06:21:31;2.70;99.90
24152;DHT22;12311;50.866;4.332;2023-04-03T06:23:57;2.70;99.90
24152;DHT22;12311;50.866;4.332;2023-04-03T06:26:23;2.80;99.90
24152;DHT22;12311;50.866;4.332;2023-04-03T06:28:48;2.90;99.90
24152;DHT22;12311;50.866;4.332;2023-04-03T06:31:14;2.90;99.90
24152;DHT22;12311;50.866;4.332;2023-04-03T06:33:40;2.80;99.90
24152;DHT22;12311;50.866;4.332;2023-04-03T06:36:06;2.90;99.90
24152;DHT22;12311;50.866;4.332;2023-04-03T06:38:33;3.00;99.90
24152;DHT22;12311;50.866;4.332;2023-04-03T06:40:59;3.10;99.90
24152;DHT22;12311;50.866;4.332;2023-04-03T06:43:25;3.10;99.90
24152;DHT22;12311;50.866;4.332;2023-04-03T06:45:51;3.20;99.90
24152;DHT22;12311;50.866;4.332;2023-04-03T06:48:17;3.30;99.90
24152;DHT22;12311;50.866;4.332;2023-04-03T06:50:43;3.40;99.90
24152;DHT22;12311;50.866;4.332;2023-04-03T06:53:09;3.40;99.90
24152;DHT22;12311;50.866;4.332;2023-04-03T06:55:35;3.50;99.90
24152;DHT22;12311;50.866;4.332;2023-04-03T06:58:01;3.70;99.90
24152;DHT22;12311;50.866;4.332;2023-04-03T07:00:27;3.70;99.90
24152;DHT22;12311;50.866;4.332;2023-04-03T07:02:53;3.80;99.90
24152;DHT22;12311;50.866;4.332;2023-04-03T07:05:19;3.70;99.90
24152;DHT22;12311;50.866;4.332;2023-04-03T07:07:45;3.80;99.90
24152;DHT22;12311;50.866;4.332;2023-04-03T07:10:11;4.00;99.90
24152;DHT22;12311;50.866;4.332;2023-04-03T07:12:37;4.00;99.90
24152;DHT22;12311;50.866;4.332;2023-04-03T07:15:07;4.00;99.90
24152;DHT22;12311;50.866;4.332;2023-04-03T07:17:32;4.10;99.90
24152;DHT22;12311;50.866;4.332;2023-04-03T07:19:58;4.20;99.90
24152;DHT22;12311;50.866;4.332;2023-04-03T07:22:24;4.30;99.90
24152;DHT22;12311;50.866;4.332;2023-04-03T07:24:50;4.30;99.90
24152;DHT22;12311;50.866;4.332;2023-04-03T07:27:16;4.30;99.90
24152;DHT22;12311;50.866;4.332;2023-04-03T07:29:43;4.30;99.90
24152;DHT22;12311;50.866;4.332;2023-04-03T07:32:09;4.30;99.90
24152;DHT22;12311;50.866;4.332;2023-04-03T07:34:35;4.40;99.90
24152;DHT22;12311;50.866;4.332;2023-04-03T07:37:01;4.60;99.90
24152;DHT22;12311;50.866;4.332;2023-04-03T07:39:28;4.60;99.90
24152;DHT22;12311;50.866;4.332;2023-04-03T07:41:54;4.60;99.90
24152;DHT22;12311;50.866;4.332;2023-04-03T07:44:24;4.60;99.90
24152;DHT22;12311;50.866;4.332;2023-04-03T07:46:50;4.60;99.90
24152;DHT22;12311;50.866;4.332;2023-04-03T07:49:16;4.80;99.90
24152;DHT22;12311;50.866;4.332;2023-04-03T07:51:44;4.80;99.90
24152;DHT22;12311;50.866;4.332;2023-04-03T07:54:10;4.90;99.90
24152;DHT22;12311;50.866;4.332;2023-04-03T07:56:36;5.00;99.90
24152;DHT22;12311;50.866;4.332;2023-04-03T07:59:02;5.00;99.90
24152;DHT22;12311;50.866;4.332;2023-04-03T08:01:28;5.00;99.90
24152;DHT22;12311;50.866;4.332;2023-04-03T08:03:54;5.10;99.90
24152;DHT22;12311;50.866;4.332;2023-04-03T08:06:20;5.20;99.90
24152;DHT22;12311;50.866;4.332;2023-04-03T08:08:45;5.20;99.90
24152;DHT22;12311;50.866;4.332;2023-04-03T08:11:12;5.30;99.90
24152;DHT22;12311;50.866;4.332;2023-04-03T08:13:38;5.40;99.90
24152;DHT22;12311;50.866;4.332;2023-04-03T08:16:13;5.50;99.90
24152;DHT22;12311;50.866;4.332;2023-04-03T08:18:39;5.60;99.90
24152;DHT22;12311;50.866;4.332;2023-04-03T08:21:12;5.70;99.90
24152;DHT22;12311;50.866;4.332;2023-04-03T08:23:39;5.70;99.90
24152;DHT22;12311;50.866;4.332;2023-04-03T08:26:22;5.80;99.90
24152;DHT22;12311;50.866;4.332;2023-04-03T08:28:49;5.90;99.90
24152;DHT22;12311;50.866;4.332;2023-04-03T08:31:18;5.80;99.90
24152;DHT22;12311;50.866;4.332;2023-04-03T08:33:46;5.90;99.90
24152;DHT22;12311;50.866;4.332;2023-04-03T08:36:24;6.10;99.90
24152;DHT22;12311;50.866;4.332;2023-04-03T08:38:51;6.20;99.90
24152;DHT22;12311;50.866;4.332;2023-04-03T08:41:37;6.30;99.90
24152;DHT22;12311;50.866;4.332;2023-04-03T08:49:33;6.40;99.90
24152;DHT22;12311;50.866;4.332;2023-04-03T08:52:04;6.60;99.90
24152;DHT22;12311;50.866;4.332;2023-04-03T08:57:13;6.80;99.90
24152;DHT22;12311;50.866;4.332;2023-04-03T08:59:39;6.90;99.90
24152;DHT22;12311;50.866;4.332;2023-04-03T09:02:30;7.00;99.90
24152;DHT22;12311;50.866;4.332;2023-04-03T09:04:57;7.10;99.90
24152;DHT22;12311;50.866;4.332;2023-04-03T09:07:36;7.00;99.90
24152;DHT22;12311;50.866;4.332;2023-04-03T09:10:05;7.10;99.90
24152;DHT22;12311;50.866;4.332;2023-04-03T09:12:38;7.10;99.90
24152;DHT22;12311;50.866;4.332;2023-04-03T09:15:18;7.10;99.90
24152;DHT22;12311;50.866;4.332;2023-04-03T09:17:57;7.30;99.90
24152;DHT22;12311;50.866;4.332;2023-04-03T09:21:03;7.30;99.90
24152;DHT22;12311;50.866;4.332;2023-04-03T09:26:05;7.50;99.90
24152;DHT22;12311;50.866;4.332;2023-04-03T09:28:38;7.70;99.90
24152;DHT22;12311;50.866;4.332;2023-04-03T09:31:18;7.70;99.90
24152;DHT22;12311;50.866;4.332;2023-04-03T09:33:45;7.70;99.90
24152;DHT22;12311;50.866;4.332;2023-04-03T09:36:12;7.80;99.90
24152;DHT22;12311;50.866;4.332;2023-04-03T09:38:38;8.10;99.90
24152;DHT22;12311;50.866;4.332;2023-04-03T09:41:16;8.10;99.90
24152;DHT22;12311;50.866;4.332;2023-04-03T09:43:52;8.30;99.90
24152;DHT22;12311;50.866;4.332;2023-04-03T09:46:25;8.50;99.90
24152;DHT22;12311;50.866;4.332;2023-04-03T09:48:59;8.80;99.90
24152;DHT22;12311;50.866;4.332;2023-04-03T09:51:29;9.00;99.90
24152;DHT22;12311;50.866;4.332;2023-04-03T09:53:56;9.10;99.90
24152;DHT22;12311;50.866;4.332;2023-04-03T09:56:25;9.30;99.90
24152;DHT22;12311;50.866;4.332;2023-04-03T10:01:34;9.30;99.90
24152;DHT22;12311;50.866;4.332;2023-04-03T10:06:44;9.80;99.90
24152;DHT22;12311;50.866;4.332;2023-04-03T10:09:31;9.90;99.90
24152;DHT22;12311;50.866;4.332;2023-04-03T10:14:25;10.00;99.90
24152;DHT22;12311;50.866;4.332;2023-04-03T10:28:08;10.70;99.90
24152;DHT22;12311;50.866;4.332;2023-04-03T10:30:49;10.80;99.90
24152;DHT22;12311;50.866;4.332;2023-04-03T10:36:34;11.20;99.90
24152;DHT22;12311;50.866;4.332;2023-04-03T10:47:20;11.70;99.90
24152;DHT22;12311;50.866;4.332;2023-04-03T10:52:24;11.80;99.90
24152;DHT22;12311;50.866;4.332;2023-04-03T10:57:29;12.10;99.90
24152;DHT22;12311;50.866;4.332;2023-04-03T11:00:03;12.20;99.90
24152;DHT22;12311;50.866;4.332;2023-04-03T11:02:37;12.50;99.90
24152;DHT22;12311;50.866;4.332;2023-04-03T11:05:13;12.60;99.90
24152;DHT22;12311;50.866;4.332;2023-04-03T11:07:45;12.60;99.90
24152;DHT22;12311;50.866;4.332;2023-04-03T11:10:26;12.60;99.90
24152;DHT22;12311;50.866;4.332;2023-04-03T11:13:19;12.80;99.90
24152;DHT22;12311;50.866;4.332;2023-04-03T11:15:49;12.80;99.90
24152;DHT22;12311;50.866;4.332;2023-04-03T11:18:25;12.90;99.90
24152;DHT22;12311;50.866;4.332;2023-04-03T11:21:16;12.70;99.90
24152;DHT22;12311;50.866;4.332;2023-04-03T11:23:46;13.10;99.90
24152;DHT22;12311;50.866;4.332;2023-04-03T11:26:17;13.70;99.90
24152;DHT22;12311;50.866;4.332;2023-04-03T11:28:43;13.60;99.90
24152;DHT22;12311;50.866;4.332;2023-04-03T11:31:25;13.60;99.90
24152;DHT22;12311;50.866;4.332;2023-04-03T11:36:55;14.10;99.90
24152;DHT22;12311;50.866;4.332;2023-04-03T11:39:31;14.20;99.90
24152;DHT22;12311;50.866;4.332;2023-04-03T11:42:14;14.30;99.90
24152;DHT22;12311;50.866;4.332;2023-04-03T11:44:41;14.30;99.90
24152;DHT22;12311;50.866;4.332;2023-04-03T11:47:11;14.40;99.90
24152;DHT22;12311;50.866;4.332;2023-04-03T11:49:57;14.80;99.30
24152;DHT22;12311;50.866;4.332;2023-04-03T12:05:56;15.00;97.40
24152;DHT22;12311;50.866;4.332;2023-04-03T12:29:37;15.40;92.70
24152;DHT22;12311;50.866;4.332;2023-04-03T12:40:47;15.50;88.50
24152;DHT22;12311;50.866;4.332;2023-04-03T12:46:21;15.10;90.90
24152;DHT22;12311;50.866;4.332;2023-04-03T12:48:51;15.70;83.10
24152;DHT22;12311;50.866;4.332;2023-04-03T12:51:44;15.90;81.80
24152;DHT22;12311;50.866;4.332;2023-04-03T12:54:18;16.50;78.00
24152;DHT22;12311;50.866;4.332;2023-04-03T12:56:45;16.30;74.40
24152;DHT22;12311;50.866;4.332;2023-04-03T12:59:21;16.30;77.90
24152;DHT22;12311;50.866;4.332;2023-04-03T13:01:55;16.70;75.00
24152;DHT22;12311;50.866;4.332;2023-04-03T13:04:22;16.80;73.70
24152;DHT22;12311;50.866;4.332;2023-04-03T13:06:48;16.80;70.00
24152;DHT22;12311;50.866;4.332;2023-04-03T13:09:26;16.70;70.70
24152;DHT22;12311;50.866;4.332;2023-04-03T13:12:14;16.70;69.30
24152;DHT22;12311;50.866;4.332;2023-04-03T13:14:50;16.90;71.30
24152;DHT22;12311;50.866;4.332;2023-04-03T13:17:16;16.70;66.80
24152;DHT22;12311;50.866;4.332;2023-04-03T13:19:44;17.00;67.50
24152;DHT22;12311;50.866;4.332;2023-04-03T13:24:49;17.10;65.30
24152;DHT22;12311;50.866;4.332;2023-04-03T13:27:16;17.00;62.70
24152;DHT22;12311;50.866;4.332;2023-04-03T13:29:42;17.00;62.00
24152;DHT22;12311;50.866;4.332;2023-04-03T13:32:20;16.80;62.00
24152;DHT22;12311;50.866;4.332;2023-04-03T13:34:46;17.00;59.10
24152;DHT22;12311;50.866;4.332;2023-04-03T13:42:39;17.50;58.40
24152;DHT22;12311;50.866;4.332;2023-04-03T13:45:24;17.30;58.30
24152;DHT22;12311;50.866;4.332;2023-04-03T13:48:10;17.60;56.80
24152;DHT22;12311;50.866;4.332;2023-04-03T13:50:54;17.90;56.50
24152;DHT22;12311;50.866;4.332;2023-04-03T13:53:20;17.90;57.10
24152;DHT22;12311;50.866;4.332;2023-04-03T13:56:08;18.10;56.60
24152;DHT22;12311;50.866;4.332;2023-04-03T13:58:36;17.90;55.00
24152;DHT22;12311;50.866;4.332;2023-04-03T14:01:15;17.90;55.90
24152;DHT22;12311;50.866;4.332;2023-04-03T14:03:51;18.20;56.00
24152;DHT22;12311;50.866;4.332;2023-04-03T14:06:17;18.10;54.90
24152;DHT22;12311;50.866;4.332;2023-04-03T14:08:44;17.80;55.90
24152;DHT22;12311;50.866;4.332;2023-04-03T14:11:16;17.80;55.90
24152;DHT22;12311;50.866;4.332;2023-04-03T14:13:42;18.20;57.30
24152;DHT22;12311;50.866;4.332;2023-04-03T14:16:12;18.80;58.30
24152;DHT22;12311;50.866;4.332;2023-04-03T14:18:38;18.50;53.40
24152;DHT22;12311;50.866;4.332;2023-04-03T14:21:04;18.70;55.00
24152;DHT22;12311;50.866;4.332;2023-04-03T14:23:30;18.90;55.80
24152;DHT22;12311;50.866;4.332;2023-04-03T14:25:56;19.30;53.60
24152;DHT22;12311;50.866;4.332;2023-04-03T14:28:22;19.60;52.40
24152;DHT22;12311;50.866;4.332;2023-04-03T14:30:49;19.40;54.00
24152;DHT22;12311;50.866;4.332;2023-04-03T14:33:19;19.20;52.60
24152;DHT22;12311;50.866;4.332;2023-04-03T14:35:45;19.00;50.60
24152;DHT22;12311;50.866;4.332;2023-04-03T14:38:29;18.90;52.00
24152;DHT22;12311;50.866;4.332;2023-04-03T14:40:56;18.70;52.30
24152;DHT22;12311;50.866;4.332;2023-04-03T14:43:22;19.20;51.40
24152;DHT22;12311;50.866;4.332;2023-04-03T14:45:48;19.60;50.00
24152;DHT22;12311;50.866;4.332;2023-04-03T14:48:32;19.50;50.10
24152;DHT22;12311;50.866;4.332;2023-04-03T14:50:58;19.40;49.60
24152;DHT22;12311;50.866;4.332;2023-04-03T14:53:24;18.50;49.50
24152;DHT22;12311;50.866;4.332;2023-04-03T14:55:51;18.00;51.00
24152;DHT22;12311;50.866;4.332;2023-04-03T14:58:19;18.20;51.40
24152;DHT22;12311;50.866;4.332;2023-04-03T15:00:46;18.50;50.00
24152;DHT22;12311;50.866;4.332;2023-04-03T15:03:17;19.00;50.30
24152;DHT22;12311;50.866;4.332;2023-04-03T15:05:44;19.30;49.80
24152;DHT22;12311;50.866;4.332;2023-04-03T15:08:31;19.50;50.10
24152;DHT22;12311;50.866;4.332;2023-04-03T15:10:57;19.30;48.70
24152;DHT22;12311;50.866;4.332;2023-04-03T15:13:23;19.20;49.60
24152;DHT22;12311;50.866;4.332;2023-04-03T15:15:50;19.20;48.90
24152;DHT22;12311;50.866;4.332;2023-04-03T15:18:25;18.60;49.00
24152;DHT22;12311;50.866;4.332;2023-04-03T15:20:52;18.90;49.70
24152;DHT22;12311;50.866;4.332;2023-04-03T15:23:19;19.50;50.30
24152;DHT22;12311;50.866;4.332;2023-04-03T15:25:46;19.70;49.30
24152;DHT22;12311;50.866;4.332;2023-04-03T15:30:46;19.30;49.20
24152;DHT22;12311;50.866;4.332;2023-04-03T15:33:12;19.50;48.80
24152;DHT22;12311;50.866;4.332;2023-04-03T15:35:38;20.10;47.90
24152;DHT22;12311;50.866;4.332;2023-04-03T15:38:04;20.00;47.00
24152;DHT22;12311;50.866;4.332;2023-04-03T15:40:30;20.30;46.70
24152;DHT22;12311;50.866;4.332;2023-04-03T15:42:56;20.40;46.40
24152;DHT22;12311;50.866;4.332;2023-04-03T15:45:22;20.60;46.30
24152;DHT22;12311;50.866;4.332;2023-04-03T15:47:47;20.30;47.00
24152;DHT22;12311;50.866;4.332;2023-04-03T15:50:13;19.20;45.40
24152;DHT22;12311;50.866;4.332;2023-04-03T15:52:39;18.90;46.60
24152;DHT22;12311;50.866;4.332;2023-04-03T15:55:05;18.70;48.40
24152;DHT22;12311;50.866;4.332;2023-04-03T15:57:31;18.80;47.50
24152;DHT22;12311;50.866;4.332;2023-04-03T15:59:57;18.80;47.40
24152;DHT22;12311;50.866;4.332;2023-04-03T16:02:23;18.20;48.10
24152;DHT22;12311;50.866;4.332;2023-04-03T16:04:53;18.30;48.80
24152;DHT22;12311;50.866;4.332;2023-04-03T16:07:19;18.30;48.30
24152;DHT22;12311;50.866;4.332;2023-04-03T16:09:44;18.20;48.70
24152;DHT22;12311;50.866;4.332;2023-04-03T16:12:10;18.10;48.20
24152;DHT22;12311;50.866;4.332;2023-04-03T16:14:36;17.90;49.50
24152;DHT22;12311;50.866;4.332;2023-04-03T16:17:01;18.70;48.20
24152;DHT22;12311;50.866;4.332;2023-04-03T16:19:28;19.00;47.50
24152;DHT22;12311;50.866;4.332;2023-04-03T16:21:55;19.00;48.00
24152;DHT22;12311;50.866;4.332;2023-04-03T16:24:21;19.00;47.40
24152;DHT22;12311;50.866;4.332;2023-04-03T16:26:47;18.20;47.40
24152;DHT22;12311;50.866;4.332;2023-04-03T16:29:12;17.90;49.30
24152;DHT22;12311;50.866;4.332;2023-04-03T16:31:38;17.90;49.60
24152;DHT22;12311;50.866;4.332;2023-04-03T16:34:04;18.20;50.00
24152;DHT22;12311;50.866;4.332;2023-04-03T16:36:29;18.40;50.00
24152;DHT22;12311;50.866;4.332;2023-04-03T16:38:55;18.40;49.60
24152;DHT22;12311;50.866;4.332;2023-04-03T16:41:21;18.00;49.60
24152;DHT22;12311;50.866;4.332;2023-04-03T16:43:46;17.60;49.00
24152;DHT22;12311;50.866;4.332;2023-04-03T16:46:12;16.90;50.50
24152;DHT22;12311;50.866;4.332;2023-04-03T16:48:38;16.70;52.20
24152;DHT22;12311;50.866;4.332;2023-04-03T16:51:03;16.90;51.20
24152;DHT22;12311;50.866;4.332;2023-04-03T16:53:29;16.70;51.50
24152;DHT22;12311;50.866;4.332;2023-04-03T16:55:57;16.60;52.50
24152;DHT22;12311;50.866;4.332;2023-04-03T16:58:23;17.10;52.90
24152;DHT22;12311;50.866;4.332;2023-04-03T17:00:49;17.50;53.40
24152;DHT22;12311;50.866;4.332;2023-04-03T17:03:14;17.40;52.40
24152;DHT22;12311;50.866;4.332;2023-04-03T17:05:40;17.60;52.80
24152;DHT22;12311;50.866;4.332;2023-04-03T17:08:06;17.20;52.50
24152;DHT22;12311;50.866;4.332;2023-04-03T17:10:32;17.30;53.20
24152;DHT22;12311;50.866;4.332;2023-04-03T17:13:00;17.60;53.10
24152;DHT22;12311;50.866;4.332;2023-04-03T17:15:25;17.60;52.80
24152;DHT22;12311;50.866;4.332;2023-04-03T17:17:52;17.20;52.40
24152;DHT22;12311;50.866;4.332;2023-04-03T17:20:18;17.30;52.70
24152;DHT22;12311;50.866;4.332;2023-04-03T17:22:44;17.20;53.00
24152;DHT22;12311;50.866;4.332;2023-04-03T17:25:10;16.90;52.60
24152;DHT22;12311;50.866;4.332;2023-04-03T17:27:36;17.00;53.30
24152;DHT22;12311;50.866;4.332;2023-04-03T17:30:03;16.80;53.40
24152;DHT22;12311;50.866;4.332;2023-04-03T17:32:29;16.00;53.50
24152;DHT22;12311;50.866;4.332;2023-04-03T17:34:55;15.50;54.70
24152;DHT22;12311;50.866;4.332;2023-04-03T17:37:20;14.90;56.00
24152;DHT22;12311;50.866;4.332;2023-04-03T17:39:46;14.40;57.40
24152;DHT22;12311;50.866;4.332;2023-04-03T17:42:12;13.70;59.20
24152;DHT22;12311;50.866;4.332;2023-04-03T17:44:37;13.00;59.50
24152;DHT22;12311;50.866;4.332;2023-04-03T17:47:03;12.70;61.00
24152;DHT22;12311;50.866;4.332;2023-04-03T17:49:29;12.20;63.70
24152;DHT22;12311;50.866;4.332;2023-04-03T17:51:54;11.80;65.40
24152;DHT22;12311;50.866;4.332;2023-04-03T17:54:20;11.80;66.90
24152;DHT22;12311;50.866;4.332;2023-04-03T17:56:46;11.60;68.40
24152;DHT22;12311;50.866;4.332;2023-04-03T17:59:14;11.30;69.50
24152;DHT22;12311;50.866;4.332;2023-04-03T18:01:41;11.00;70.90
24152;DHT22;12311;50.866;4.332;2023-04-03T18:04:07;10.70;72.70
24152;DHT22;12311;50.866;4.332;2023-04-03T18:06:39;10.50;74.70
24152;DHT22;12311;50.866;4.332;2023-04-03T18:09:14;10.30;76.40
24152;DHT22;12311;50.866;4.332;2023-04-03T18:11:42;10.30;77.30
24152;DHT22;12311;50.866;4.332;2023-04-03T18:14:08;10.10;79.30
24152;DHT22;12311;50.866;4.332;2023-04-03T18:16:35;9.90;80.10
24152;DHT22;12311;50.866;4.332;2023-04-03T18:19:01;9.80;81.20
24152;DHT22;12311;50.866;4.332;2023-04-03T18:21:27;9.60;82.00
24152;DHT22;12311;50.866;4.332;2023-04-03T18:23:54;9.40;84.70
24152;DHT22;12311;50.866;4.332;2023-04-03T18:26:24;9.40;84.30
24152;DHT22;12311;50.866;4.332;2023-04-03T18:28:55;9.40;84.90
24152;DHT22;12311;50.866;4.332;2023-04-03T18:31:23;9.30;84.60
24152;DHT22;12311;50.866;4.332;2023-04-03T18:33:49;9.20;85.80
24152;DHT22;12311;50.866;4.332;2023-04-03T18:36:18;9.10;87.60
24152;DHT22;12311;50.866;4.332;2023-04-03T18:38:44;9.00;87.10
24152;DHT22;12311;50.866;4.332;2023-04-03T18:41:09;8.90;88.10
24152;DHT22;12311;50.866;4.332;2023-04-03T18:43:36;8.90;89.50
24152;DHT22;12311;50.866;4.332;2023-04-03T18:46:02;8.80;90.70
24152;DHT22;12311;50.866;4.332;2023-04-03T18:48:30;8.70;91.40
24152;DHT22;12311;50.866;4.332;2023-04-03T18:50:55;8.60;92.50
24152;DHT22;12311;50.866;4.332;2023-04-03T18:53:21;8.50;93.10
24152;DHT22;12311;50.866;4.332;2023-04-03T18:55:47;8.40;93.90
24152;DHT22;12311;50.866;4.332;2023-04-03T18:58:12;8.40;94.80
24152;DHT22;12311;50.866;4.332;2023-04-03T19:00:39;8.40;95.10
24152;DHT22;12311;50.866;4.332;2023-04-03T19:03:05;8.40;95.20
24152;DHT22;12311;50.866;4.332;2023-04-03T19:05:31;8.30;95.20
24152;DHT22;12311;50.866;4.332;2023-04-03T19:07:57;8.30;95.80
24152;DHT22;12311;50.866;4.332;2023-04-03T19:10:23;8.30;96.40
24152;DHT22;12311;50.866;4.332;2023-04-03T19:12:50;8.10;96.60
24152;DHT22;12311;50.866;4.332;2023-04-03T19:15:18;8.00;98.00
24152;DHT22;12311;50.866;4.332;2023-04-03T19:17:44;7.90;97.40
24152;DHT22;12311;50.866;4.332;2023-04-03T19:20:11;7.90;97.50
24152;DHT22;12311;50.866;4.332;2023-04-03T19:22:37;7.80;97.70
24152;DHT22;12311;50.866;4.332;2023-04-03T19:25:07;7.80;97.90
24152;DHT22;12311;50.866;4.332;2023-04-03T19:27:35;7.80;97.90
24152;DHT22;12311;50.866;4.332;2023-04-03T19:30:01;7.80;98.40
24152;DHT22;12311;50.866;4.332;2023-04-03T19:32:27;7.70;98.80
24152;DHT22;12311;50.866;4.332;2023-04-03T19:34:53;7.60;99.10
24152;DHT22;12311;50.866;4.332;2023-04-03T19:37:18;7.60;99.40
24152;DHT22;12311;50.866;4.332;2023-04-03T19:39:45;7.60;99.80
24152;DHT22;12311;50.866;4.332;2023-04-03T19:42:14;7.50;99.90
24152;DHT22;12311;50.866;4.332;2023-04-03T19:44:40;7.40;99.90
24152;DHT22;12311;50.866;4.332;2023-04-03T19:47:06;7.40;99.90
24152;DHT22;12311;50.866;4.332;2023-04-03T19:49:32;7.50;99.90
24152;DHT22;12311;50.866;4.332;2023-04-03T19:51:58;7.50;99.90
24152;DHT22;12311;50.866;4.332;2023-04-03T19:54:23;7.30;99.90
24152;DHT22;12311;50.866;4.332;2023-04-03T19:56:49;7.30;99.90
24152;DHT22;12311;50.866;4.332;2023-04-03T19:59:15;7.30;99.90
24152;DHT22;12311;50.866;4.332;2023-04-03T20:01:42;7.30;99.90
24152;DHT22;12311;50.866;4.332;2023-04-03T20:04:08;7.30;99.90
24152;DHT22;12311;50.866;4.332;2023-04-03T20:06:33;7.30;99.90
24152;DHT22;12311;50.866;4.332;2023-04-03T20:09:01;7.30;99.90
24152;DHT22;12311;50.866;4.332;2023-04-03T20:11:26;7.30;99.90
24152;DHT22;12311;50.866;4.332;2023-04-03T20:13:53;7.20;99.90
24152;DHT22;12311;50.866;4.332;2023-04-03T20:16:20;7.10;99.90
24152;DHT22;12311;50.866;4.332;2023-04-03T20:18:50;7.00;99.90
24152;DHT22;12311;50.866;4.332;2023-04-03T20:21:17;6.90;99.90
24152;DHT22;12311;50.866;4.332;2023-04-03T20:23:43;6.80;99.90
24152;DHT22;12311;50.866;4.332;2023-04-03T20:26:21;6.70;99.90
24152;DHT22;12311;50.866;4.332;2023-04-03T20:28:51;6.80;99.90
24152;DHT22;12311;50.866;4.332;2023-04-03T20:31:18;6.90;99.90
24152;DHT22;12311;50.866;4.332;2023-04-03T20:33:44;6.90;99.90
24152;DHT22;12311;50.866;4.332;2023-04-03T20:36:12;6.80;99.90
24152;DHT22;12311;50.866;4.332;2023-04-03T20:38:37;6.70;99.90
24152;DHT22;12311;50.866;4.332;2023-04-03T20:41:03;6.70;99.90
24152;DHT22;12311;50.866;4.332;2023-04-03T20:43:30;6.70;99.90
24152;DHT22;12311;50.866;4.332;2023-04-03T20:46:01;6.60;99.90
24152;DHT22;12311;50.866;4.332;2023-04-03T20:48:28;6.60;99.90
24152;DHT22;12311;50.866;4.332;2023-04-03T20:50:56;6.60;99.90
24152;DHT22;12311;50.866;4.332;2023-04-03T20:53:21;6.50;99.90
